Wright, Arkansas
Current Conditions -  °F | °C
As of 7:53 PM on Saturday 25 Oct 2014 (Local Time) from KPBF Reporting Station
Clear Clear  
Wind Chill: 70°   Ceiling: Unl
Heat Index: 70°   Visibility: 8mi
Dew Point: 65°   Wind: 5mph
Humidity: 84%   Direction: 210°SSW
Pressure: 30.04"   Gusts: NA
Location:  34.43°N, 92.07°W
Report Text: KPBF 260053Z AUTO 21004KT 8SM CLR 21/18 A3004 RMK AO2 SLP172 T02110183
Loading
Personal Weather Stations






























Interactive Weather Map
Tropical Storm Tracking
New forecast layout! Learn more

10-Day Weather Forecast

Advertisements
Track Severe Weather on mobile